Christchurch (NZCH)

Aerodrome — Elev 123
New Zealand
S043.29.09.351 E172.32.16.287
Loading chart...

Current Weather

NZCH 101430Z AUTO 01002KT 9999 NCD 00/M01 Q1008 NOSIG

Published 40 minutes ago

Airport Activity

Loading chart...
Loading chart...

Standard ATC Positions

CallsignRadio Name / Freq / Voice Room / TypeFrequencyType
NZCH-K_CTR Christchurch Control
129.400
nzch-k_ctr
129.400
NZCH_APP Christchurch Approach
126.100
nzch_app
126.100
NZCH_TWR Christchurch Tower
118.400
nzch_twr
118.400
NZCH_GND Christchurch Ground
121.900
nzch_gnd
121.900
NZCH_DEL Christchurch Delivery
128.200
nzch_del
128.200
NZCH_ATIS Christchurch ATIS
127.200
nzch_atis
127.200
UNICOM NZZC UNICOM
122.800
unicom_nzzc
122.800

Event ATC Positions

This airport has additional control positions that are designated for use only during major events.
These non-standard positions must not be staffed unless specifically activated by the VATNZ Airspace Director as part of an official VATNZ event.
At all other times, controllers should use the designated Standard ATC Positions.

CallsignRadio Name / Freq / Voice Room / TypeFrequencyType
NZCH_DEP Christchurch Approach
120.900
nzch_dep
120.900

Charts